Time;durP1;ratioP1;P1;durP2;ratioP2;P2;SDS_P1;SDS_P2;PMS_P1;PMS_P2;Temp;Humidity;BMP_temperature;BMP_pressure;BME280_temperature;BME280_humidity;BME280_pressure;Samples;Min_cycle;Max_cycle;Signal;HPM_P1;HPM_P2
2023/09/16 00:01:10;;;;;;;8.07;7.10;;;;;;;16.32;100.00;150171.22;4896509;29;20246;-63
2023/09/16 00:03:38;;;;;;;7.93;7.13;;;;;;;16.43;100.00;150196.22;4900315;29;20741;-63
2023/09/16 00:06:05;;;;;;;12.13;8.00;;;;;;;16.36;100.00;150181.22;4897566;29;20233;-63
2023/09/16 00:08:33;;;;;;;9.63;7.97;;;;;;;16.41;100.00;150192.50;4890528;29;20252;-63
2023/09/16 00:10:59;;;;;;;9.60;7.70;;;;;;;16.35;100.00;150178.72;4897778;29;20327;-63
2023/09/16 00:13:27;;;;;;;9.73;7.90;;;;;;;16.35;100.00;150177.50;4899048;29;20231;-63
2023/09/16 00:15:59;;;;;;;9.53;7.47;;;;;;;16.35;100.00;150178.72;4897235;29;20223;-63
2023/09/16 00:18:25;;;;;;;11.80;7.67;;;;;;;16.38;100.00;150185.00;4904501;29;20613;-63
2023/09/16 00:21:00;;;;;;;9.70;7.60;;;;;;;16.38;100.00;150186.22;4915975;29;20238;-63
2023/09/16 00:23:27;;;;;;;8.97;7.47;;;;;;;16.42;100.00;150195.00;4903947;29;20227;-63
2023/09/16 00:25:59;;;;;;;8.87;7.97;;;;;;;16.48;100.00;150208.72;4900867;29;20591;-64
2023/09/16 00:28:26;;;;;;;8.67;7.77;;;;;;;16.42;100.00;150193.72;4904535;29;20709;-63
2023/09/16 00:31:01;;;;;;;8.43;7.27;;;;;;;16.38;100.00;150185.00;4900167;29;20235;-63
2023/09/16 00:33:29;;;;;;;9.57;7.90;;;;;;;16.32;100.00;150171.22;4917382;29;20227;-63
2023/09/16 00:36:00;;;;;;;8.77;7.70;;;;;;;16.25;100.00;150152.50;4916382;29;20230;-63
2023/09/16 00:38:27;;;;;;;10.00;7.93;;;;;;;16.21;100.00;150145.00;4916671;29;20242;-63
2023/09/16 00:40:59;;;;;;;11.90;7.60;;;;;;;16.22;100.00;150146.22;4913689;29;20243;-63
2023/09/16 00:43:25;;;;;;;10.20;7.60;;;;;;;16.16;100.00;150132.50;4917410;29;20223;-63
2023/09/16 00:46:17;;;;;;;12.47;8.27;;;;;;;16.12;100.00;150121.22;4901477;29;20721;-63
2023/09/16 00:48:45;;;;;;;9.23;7.57;;;;;;;16.12;100.00;150121.22;4901324;28;20232;-63
2023/09/16 00:51:14;;;;;;;8.37;7.50;;;;;;;16.06;100.00;150108.72;4913762;29;20231;-63
2023/09/16 00:53:45;;;;;;;10.70;8.40;;;;;;;16.04;100.00;150103.72;4916161;28;20263;-63
2023/09/16 00:56:12;;;;;;;9.60;8.00;;;;;;;15.98;100.00;150087.50;4899536;29;20234;-63
2023/09/16 00:58:38;;;;;;;9.13;7.40;;;;;;;15.92;100.00;150075.00;4901610;29;20243;-63
2023/09/16 01:01:05;;;;;;;8.80;7.33;;;;;;;15.85;100.00;150057.44;4914827;29;20255;-63
2023/09/16 01:03:35;;;;;;;10.13;8.40;;;;;;;15.83;100.00;150052.44;4903356;29;20598;-63
2023/09/16 01:06:04;;;;;;;10.83;7.70;;;;;;;15.75;100.00;150033.72;4915664;29;20228;-63
2023/09/16 01:08:35;;;;;;;10.30;7.70;;;;;;;15.70;100.00;150021.22;4917883;29;20282;-63
2023/09/16 01:11:04;;;;;;;9.77;8.30;;;;;;;15.66;100.00;150011.25;4915468;29;20296;-63
2023/09/16 01:13:33;;;;;;;9.07;7.73;;;;;;;15.59;100.00;149993.75;4915616;28;20230;-63
2023/09/16 01:16:08;;;;;;;9.90;7.63;;;;;;;15.49;100.00;149971.25;4901625;29;20325;-63
2023/09/16 01:18:39;;;;;;;10.33;7.93;;;;;;;15.49;100.00;149969.97;4918667;29;20232;-63
2023/09/16 01:21:07;;;;;;;10.03;8.20;;;;;;;15.42;100.00;149952.50;4900511;29;20234;-63
2023/09/16 01:23:35;;;;;;;11.30;8.20;;;;;;;15.49;100.00;149971.25;4917080;29;20238;-63
2023/09/16 01:26:04;;;;;;;10.60;8.27;;;;;;;15.39;100.00;149945.00;4898479;29;20240;-63
2023/09/16 01:28:31;;;;;;;8.50;7.40;;;;;;;15.31;100.00;149926.28;4914061;29;20229;-63
2023/09/16 01:30:59;;;;;;;8.67;7.77;;;;;;;15.27;100.00;149916.28;4913952;29;20246;-63
2023/09/16 01:33:32;;;;;;;8.43;7.63;;;;;;;15.21;100.00;149902.56;4912892;29;20232;-63
2023/09/16 01:36:04;;;;;;;9.60;8.03;;;;;;;15.21;100.00;149902.56;4896149;29;20232;-63
2023/09/16 01:38:33;;;;;;;10.10;7.33;;;;;;;15.17;100.00;149893.78;4907017;29;20331;-63
2023/09/16 01:41:02;;;;;;;13.37;7.93;;;;;;;15.13;100.00;149883.81;4908092;29;20299;-63
2023/09/16 01:43:31;;;;;;;9.23;7.67;;;;;;;15.10;100.00;149875.06;4913417;29;20242;-63
2023/09/16 01:45:58;;;;;;;9.33;8.07;;;;;;;15.10;100.00;149875.06;4895932;29;20718;-63
2023/09/16 01:48:25;;;;;;;11.63;7.73;;;;;;;15.07;100.00;149867.59;4914345;29;20267;-63
2023/09/16 01:51:17;;;;;;;11.13;7.70;;;;;;;15.04;100.00;149862.59;4895990;29;20288;-63
2023/09/16 01:53:44;;;;;;;9.80;8.23;;;;;;;15.00;100.00;149851.31;4915185;29;20248;-65
2023/09/16 01:56:10;;;;;;;9.07;8.00;;;;;;;14.97;100.00;149843.81;4908391;29;20296;-66
2023/09/16 01:58:38;;;;;;;10.47;7.77;;;;;;;15.00;100.00;149852.59;4897335;29;20242;-66
2023/09/16 02:01:08;;;;;;;9.90;7.47;;;;;;;15.00;100.00;149852.59;4908406;29;20238;-66
2023/09/16 02:03:34;;;;;;;10.37;7.70;;;;;;;14.97;100.00;149845.09;4912747;29;20238;-67
2023/09/16 02:06:01;;;;;;;10.33;7.90;;;;;;;14.92;100.00;149832.63;4911237;29;20231;-66
2023/09/16 02:08:28;;;;;;;8.87;7.30;;;;;;;15.01;100.00;149853.81;4897445;29;20237;-66
2023/09/16 02:10:59;;;;;;;9.20;7.33;;;;;;;14.94;100.00;149837.59;4895820;29;20247;-66
2023/09/16 02:13:25;;;;;;;10.00;7.67;;;;;;;14.89;100.00;149826.34;4913640;29;20233;-66
2023/09/16 02:16:00;;;;;;;12.57;7.60;;;;;;;14.91;100.00;149830.13;4896111;29;20616;-66
2023/09/16 02:18:33;;;;;;;10.40;7.27;;;;;;;14.91;100.00;149831.34;4913804;29;20232;-66
2023/09/16 02:21:00;;;;;;;9.60;7.37;;;;;;;14.91;100.00;149830.13;4906222;29;20918;-66
2023/09/16 02:23:27;;;;;;;8.33;7.30;;;;;;;14.88;100.00;149823.84;4896124;29;20230;-64
2023/09/16 02:26:01;;;;;;;8.67;6.87;;;;;;;14.89;100.00;149825.13;4911250;29;20918;-64
2023/09/16 02:28:27;;;;;;;8.93;6.90;;;;;;;14.97;100.00;149845.09;4914029;29;20684;-64
2023/09/16 02:31:00;;;;;;;7.60;6.80;;;;;;;14.88;100.00;149823.84;4894707;29;20235;-64
2023/09/16 02:33:26;;;;;;;8.90;6.63;;;;;;;14.85;100.00;149815.13;4896345;29;20699;-64
2023/09/16 02:35:59;;;;;;;7.37;6.67;;;;;;;14.80;100.00;149802.63;4912945;29;20254;-64
2023/09/16 02:38:25;;;;;;;8.73;6.57;;;;;;;14.80;100.00;149803.91;4901058;29;20233;-64
2023/09/16 02:41:17;;;;;;;7.63;6.57;;;;;;;14.77;100.00;149796.41;4896607;29;20234;-63
2023/09/16 02:43:46;;;;;;;6.90;5.40;;;;;;;14.72;100.00;149783.94;4912519;29;20236;-63
2023/09/16 02:46:15;;;;;;;9.67;6.17;;;;;;;14.74;100.00;149788.91;4910837;29;20242;-63
2023/09/16 02:48:43;;;;;;;6.77;6.07;;;;;;;14.67;100.00;149771.38;4911882;29;20250;-63
2023/09/16 02:51:11;;;;;;;9.57;6.87;;;;;;;14.78;100.00;149798.91;4895354;29;20239;-63
2023/09/16 02:53:38;;;;;;;7.53;6.73;;;;;;;14.72;100.00;149785.16;4912570;29;20239;-63
2023/09/16 02:56:07;;;;;;;7.03;6.17;;;;;;;14.80;100.00;149803.91;4913848;29;20230;-63
2023/09/16 02:58:34;;;;;;;8.13;6.13;;;;;;;14.74;100.00;149788.91;4905233;29;20227;-63
2023/09/16 03:01:01;;;;;;;8.73;6.00;;;;;;;14.69;100.00;149776.38;4914399;29;20309;-65
2023/09/16 03:03:30;;;;;;;8.33;5.63;;;;;;;14.74;100.00;149788.91;4913291;29;20306;-65
2023/09/16 03:05:58;;;;;;;9.90;5.97;;;;;;;14.71;100.00;149781.44;4912402;29;20262;-65
2023/09/16 03:08:25;;;;;;;7.77;6.73;;;;;;;14.65;100.00;149766.41;4897682;28;20726;-65
2023/09/16 03:11:16;;;;;;;7.10;6.33;;;;;;;14.68;100.00;149773.88;4897921;29;20241;-65
2023/09/16 03:13:43;;;;;;;7.93;6.27;;;;;;;14.69;100.00;149776.38;4903903;29;20722;-65
2023/09/16 03:16:16;;;;;;;11.40;6.57;;;;;;;14.67;100.00;149772.63;4914377;29;29788;-66
2023/09/16 03:18:48;;;;;;;9.63;6.30;;;;;;;14.62;100.00;149760.13;4916532;29;20698;-66
2023/09/16 03:21:16;;;;;;;9.20;6.57;;;;;;;14.81;100.00;149805.13;4913429;29;20239;-65
2023/09/16 03:23:45;;;;;;;7.67;6.83;;;;;;;14.72;100.00;149783.94;4899275;28;20292;-66
2023/09/16 03:26:13;;;;;;;7.20;5.97;;;;;;;14.78;100.00;149798.91;4913294;29;20609;-66
2023/09/16 03:28:42;;;;;;;8.20;6.30;;;;;;;14.75;100.00;149791.41;4916072;29;20823;-65
2023/09/16 03:31:09;;;;;;;7.70;6.30;;;;;;;14.75;100.00;149792.63;5130623;23;20226;-55
2023/09/16 03:33:37;;;;;;;10.00;6.30;;;;;;;14.70;100.00;149778.94;4936141;28;20316;-56
2023/09/16 03:36:06;;;;;;;8.17;6.50;;;;;;;14.67;100.00;149772.63;4917905;28;20236;-56
2023/09/16 03:38:33;;;;;;;8.03;6.63;;;;;;;14.73;100.00;149786.41;4917877;29;20225;-55
2023/09/16 03:41:03;;;;;;;7.67;6.30;;;;;;;14.68;100.00;149773.88;4932374;28;20234;-55
2023/09/16 03:43:31;;;;;;;9.13;6.90;;;;;;;14.66;100.00;149768.91;4932950;28;20232;-55
2023/09/16 03:45:59;;;;;;;6.67;5.90;;;;;;;14.61;100.00;149758.91;4932967;28;20234;-56
2023/09/16 03:48:33;;;;;;;10.33;7.13;;;;;;;14.71;100.00;149782.66;4921448;28;20823;-56
2023/09/16 03:51:00;;;;;;;7.80;6.57;;;;;;;14.69;100.00;149777.66;4927428;28;20238;-56
2023/09/16 03:53:29;;;;;;;7.93;6.53;;;;;;;14.61;100.00;149758.91;4941223;28;20237;-56
2023/09/16 03:55:59;;;;;;;9.83;6.10;;;;;;;14.58;100.00;149751.41;4936545;28;20230;-56
2023/09/16 03:58:25;;;;;;;8.67;7.17;;;;;;;14.59;100.00;149753.91;4939110;28;20237;-56
2023/09/16 04:00:59;;;;;;;9.03;6.97;;;;;;;14.68;100.00;149773.88;4920401;28;20234;-56
2023/09/16 04:03:25;;;;;;;7.67;6.50;;;;;;;14.66;100.00;149770.13;4939022;28;20280;-56
2023/09/16 04:05:59;;;;;;;7.73;6.43;;;;;;;14.65;100.00;149767.63;4923539;28;20759;-56
2023/09/16 04:08:27;;;;;;;9.03;7.10;;;;;;;14.76;100.00;149795.13;4929743;28;20585;-56
2023/09/16 04:11:00;;;;;;;11.30;6.90;;;;;;;14.78;100.00;149798.91;4934821;28;20705;-55
2023/09/16 04:13:26;;;;;;;10.23;6.77;;;;;;;14.71;100.00;149782.66;4935266;28;20226;-55
2023/09/16 04:15:58;;;;;;;7.57;6.77;;;;;;;14.75;100.00;149791.41;4920919;28;20311;-56
2023/09/16 04:18:25;;;;;;;8.37;6.60;;;;;;;14.72;100.00;149785.16;4923279;28;20701;-55
2023/09/16 04:21:17;;;;;;;8.07;6.83;;;;;;;14.67;100.00;149772.63;4921368;28;20236;-56
2023/09/16 04:23:43;;;;;;;8.20;6.73;;;;;;;14.70;100.00;149780.16;4919421;28;20230;-55
2023/09/16 04:26:15;;;;;;;11.07;6.93;;;;;;;14.62;100.00;149760.13;4913932;28;20265;-56
2023/09/16 04:28:42;;;;;;;9.43;6.87;;;;;;;14.59;100.00;149752.63;4934759;28;20237;-56
2023/09/16 04:31:09;;;;;;;8.57;6.87;;;;;;;14.65;100.00;149766.41;4918546;28;20265;-56
2023/09/16 04:33:38;;;;;;;7.83;6.60;;;;;;;14.59;100.00;149752.63;4926579;28;20233;-56
2023/09/16 04:36:06;;;;;;;10.47;6.63;;;;;;;14.57;100.00;149747.63;4923692;28;20239;-56
2023/09/16 04:38:34;;;;;;;8.63;6.63;;;;;;;14.59;100.00;149753.91;4918724;28;20269;-56
2023/09/16 04:41:01;;;;;;;7.53;6.70;;;;;;;14.56;100.00;149746.41;4931195;28;20231;-56
2023/09/16 04:43:29;;;;;;;9.57;7.10;;;;;;;14.61;100.00;149758.91;4920799;28;20238;-55
2023/09/16 04:46:00;;;;;;;9.23;6.53;;;;;;;14.57;100.00;149747.63;4932659;28;20411;-56
2023/09/16 04:48:41;;;;;;;10.60;6.87;;;;;;;14.59;100.00;149752.63;4920333;29;20792;-55
2023/09/16 04:51:07;;;;;;;10.00;6.73;;;;;;;14.61;100.00;149757.63;4918498;28;20241;-54
2023/09/16 04:53:34;;;;;;;13.47;6.87;;;;;;;14.61;100.00;149758.91;4921999;28;20236;-56
2023/09/16 04:56:01;;;;;;;8.17;6.87;;;;;;;14.60;100.00;149756.41;4930978;28;20240;-56
2023/09/16 04:58:31;;;;;;;8.23;7.30;;;;;;;14.57;100.00;149748.91;4926902;28;20321;-56
2023/09/16 05:01:00;;;;;;;8.83;7.00;;;;;;;14.53;100.00;149738.91;4913819;28;20336;-56
2023/09/16 05:03:27;;;;;;;9.10;7.07;;;;;;;14.53;100.00;149738.91;4916203;28;20698;-56
2023/09/16 05:05:59;;;;;;;9.80;7.03;;;;;;;14.61;100.00;149758.91;4914482;28;20218;-56
2023/09/16 05:08:29;;;;;;;10.27;7.03;;;;;;;14.61;100.00;149757.63;4926108;28;20765;-56
2023/09/16 05:10:59;;;;;;;8.77;6.80;;;;;;;14.56;100.00;149746.41;4930024;28;20265;-54
2023/09/16 05:13:28;;;;;;;9.10;6.50;;;;;;;14.56;100.00;149745.13;4920759;28;20300;-55
2023/09/16 05:16:00;;;;;;;9.47;7.50;;;;;;;14.64;100.00;149765.13;4915307;28;20222;-56
2023/09/16 05:18:26;;;;;;;9.73;6.50;;;;;;;14.66;100.00;149770.13;4923405;28;20241;-56
2023/09/16 05:20:59;;;;;;;8.27;6.53;;;;;;;14.66;100.00;149768.91;4918476;28;20229;-56
2023/09/16 05:23:26;;;;;;;11.77;7.03;;;;;;;14.63;100.00;149762.63;4928474;28;20240;-56
2023/09/16 05:25:59;;;;;;;10.50;6.93;;;;;;;14.58;100.00;149751.41;4914953;28;20230;-54
2023/09/16 05:28:31;;;;;;;9.17;6.33;;;;;;;14.57;100.00;149748.91;4928600;28;20231;-56
2023/09/16 05:31:03;;;;;;;9.70;7.33;;;;;;;14.59;100.00;149752.63;4932724;28;20233;-56
2023/09/16 05:33:31;;;;;;;8.30;7.03;;;;;;;14.61;100.00;149758.91;4920206;29;20239;-56
2023/09/16 05:35:59;;;;;;;8.07;7.23;;;;;;;14.62;100.00;149760.13;4934649;28;20627;-57
2023/09/16 05:38:25;;;;;;;8.03;6.63;;;;;;;14.65;100.00;149767.63;4936386;28;20227;-56
2023/09/16 05:41:17;;;;;;;8.70;6.67;;;;;;;14.69;100.00;149776.38;4920528;28;20357;-56
2023/09/16 05:43:44;;;;;;;8.80;6.87;;;;;;;14.73;100.00;149787.66;4919027;28;20755;-56
2023/09/16 05:46:12;;;;;;;9.67;6.90;;;;;;;14.75;100.00;149792.63;4916793;28;20232;-56
2023/09/16 05:48:39;;;;;;;10.53;6.80;;;;;;;14.81;100.00;149805.13;4921965;28;20223;-56
2023/09/16 05:51:07;;;;;;;6.90;6.20;;;;;;;14.85;100.00;149815.13;4933594;28;20225;-56
2023/09/16 05:53:34;;;;;;;7.93;6.43;;;;;;;14.88;100.00;149823.84;4921507;29;20225;-56
2023/09/16 05:56:05;;;;;;;9.20;7.07;;;;;;;14.96;100.00;149841.31;4931693;28;20233;-56
2023/09/16 05:58:33;;;;;;;8.50;7.10;;;;;;;15.03;100.00;149858.81;4919889;28;20666;-56
2023/09/16 06:01:01;;;;;;;7.90;6.23;;;;;;;15.11;100.00;149878.81;4933333;28;20241;-56
2023/09/16 06:03:30;;;;;;;9.37;6.60;;;;;;;15.12;100.00;149881.31;4935121;28;20329;-56
2023/09/16 06:05:59;;;;;;;9.97;6.70;;;;;;;15.19;100.00;149898.78;4930987;28;20236;-55
2023/09/16 06:08:26;;;;;;;9.27;6.90;;;;;;;15.23;100.00;149906.28;4917619;28;20236;-56
2023/09/16 06:11:01;;;;;;;8.83;7.13;;;;;;;15.31;100.00;149927.53;4915643;28;20229;-55
2023/09/16 06:13:27;;;;;;;7.40;6.53;;;;;;;15.34;100.00;149935.03;4917347;28;20238;-56
2023/09/16 06:15:58;;;;;;;10.53;6.87;;;;;;;15.35;100.00;149937.53;4930061;28;20308;-56
2023/09/16 06:18:27;;;;;;;7.70;6.90;;;;;;;15.35;100.00;149936.25;4937104;28;20226;-56
2023/09/16 06:21:00;;;;;;;8.13;6.60;;;;;;;15.33;100.00;149931.28;4914021;28;20234;-55
2023/09/16 06:23:28;;;;;;;9.80;7.33;;;;;;;15.33;100.00;149932.53;4915669;28;20257;-55
2023/09/16 06:25:59;;;;;;;8.93;6.50;;;;;;;15.33;100.00;149932.53;4913480;28;20233;-56
2023/09/16 06:28:27;;;;;;;10.10;7.03;;;;;;;15.35;100.00;149937.53;4932801;28;20610;-56
2023/09/16 06:30:59;;;;;;;9.03;6.83;;;;;;;15.40;100.00;149948.75;4917832;28;20260;-56
2023/09/16 06:33:26;;;;;;;9.13;7.33;;;;;;;15.39;100.00;149945.00;4924862;28;20227;-55
2023/09/16 06:36:00;;;;;;;8.20;6.77;;;;;;;15.36;100.00;149938.78;4913968;28;20233;-56
2023/09/16 06:38:27;;;;;;;11.07;7.27;;;;;;;15.41;100.00;149951.25;4923814;28;20218;-57
2023/09/16 06:40:59;;;;;;;8.07;6.90;;;;;;;15.47;100.00;149964.97;4915183;28;20223;-57
2023/09/16 06:43:26;;;;;;;8.73;6.63;;;;;;;15.52;100.00;149976.25;4919441;28;20713;-56
2023/09/16 06:45:59;;;;;;;8.77;7.10;;;;;;;15.57;100.00;149988.75;4916227;28;20300;-56
2023/09/16 06:48:25;;;;;;;7.50;6.43;;;;;;;15.63;100.00;150004.97;4912781;28;20231;-56
2023/09/16 06:51:19;;;;;;;8.50;6.87;;;;;;;15.72;100.00;150026.22;4917106;28;20240;-56
2023/09/16 06:53:45;;;;;;;7.67;6.63;;;;;;;15.79;100.00;150043.72;4920634;28;20575;-55
2023/09/16 06:56:12;;;;;;;8.70;6.00;;;;;;;15.91;100.00;150071.22;4920132;28;20235;-56
2023/09/16 06:58:38;;;;;;;8.40;6.43;;;;;;;15.94;100.00;150080.00;4918955;28;20246;-56
2023/09/16 07:01:09;;;;;;;8.00;6.80;;;;;;;15.99;100.00;150091.22;4930660;28;20234;-56
2023/09/16 07:03:36;;;;;;;8.83;6.97;;;;;;;16.10;100.00;150117.50;4916601;28;20312;-55
2023/09/16 07:06:02;;;;;;;9.93;7.40;;;;;;;16.18;100.00;150136.22;4913665;28;20225;-56
2023/09/16 07:08:30;;;;;;;12.20;6.60;;;;;;;16.25;100.00;150153.72;4917926;28;20224;-56
2023/09/16 07:10:59;;;;;;;8.73;6.47;;;;;;;16.33;100.00;150173.72;4913621;28;20324;-55
2023/09/16 07:13:26;;;;;;;8.07;6.80;;;;;;;16.38;100.00;150186.22;4917590;28;20232;-56
2023/09/16 07:16:19;;;;;;;8.37;6.73;;;;;;;16.48;100.00;150209.94;4913900;28;20810;-56
2023/09/16 07:18:46;;;;;;;9.83;6.90;;;;;;;16.56;100.00;150227.44;4916103;28;20287;-56
2023/09/16 07:21:12;;;;;;;9.23;6.80;;;;;;;16.64;100.00;150248.72;4912580;28;20294;-56
2023/09/16 07:23:40;;;;;;;8.87;6.20;;;;;;;16.75;100.00;150274.97;4914740;28;20317;-56
2023/09/16 07:26:07;;;;;;;8.60;6.73;;;;;;;16.86;100.00;150299.97;4916189;28;20240;-57
2023/09/16 07:28:34;;;;;;;7.13;6.13;;;;;;;16.97;100.00;150328.75;4921525;28;20274;-56
2023/09/16 07:31:00;;;;;;;9.00;6.00;;;;;;;17.11;100.00;150362.53;4915896;28;20235;-56
2023/09/16 07:33:27;;;;;;;8.83;6.43;;;;;;;17.23;100.00;150391.28;4918192;28;20238;-56
2023/09/16 07:35:59;;;;;;;6.90;5.87;;;;;;;17.37;100.00;150425.09;4919328;28;20227;-56
2023/09/16 07:38:25;;;;;;;10.10;6.13;;;;;;;17.48;100.00;150450.09;4920908;28;20740;-56
2023/09/16 07:41:19;;;;;;;11.83;6.10;;;;;;;17.61;100.00;150482.59;4918408;28;20242;-56
2023/09/16 07:43:45;;;;;;;14.40;9.70;;;;;;;17.74;100.00;150512.59;4916391;28;20227;-56
2023/09/16 07:46:12;;;;;;;14.30;9.97;;;;;;;17.83;100.00;150536.41;4915886;28;20331;-56
2023/09/16 07:48:39;;;;;;;13.83;9.53;;;;;;;17.93;100.00;150558.94;4920467;28;20727;-57
2023/09/16 07:51:06;;;;;;;12.03;8.63;;;;;;;18.04;100.00;150585.22;4921120;28;20230;-57
2023/09/16 07:53:32;;;;;;;8.87;7.83;;;;;;;18.13;100.00;150608.97;4921036;28;20234;-56
2023/09/16 07:55:59;;;;;;;13.17;8.33;;;;;;;18.20;100.00;150625.28;4918282;28;20839;-56
2023/09/16 07:58:27;;;;;;;9.93;7.90;;;;;;;18.29;100.00;150646.53;4922272;28;20229;-57
2023/09/16 08:00:59;;;;;;;16.00;8.80;;;;;;;18.37;100.00;150666.56;4919160;28;20363;-57
2023/09/16 08:03:25;;;;;;;17.33;10.43;;;;;;;18.45;100.00;150685.34;4924398;28;20232;-57
2023/09/16 08:06:17;;;;;;;12.00;10.13;;;;;;;18.54;100.00;150706.59;4918468;28;20240;-57
2023/09/16 08:08:44;;;;;;;15.90;11.50;;;;;;;18.64;100.00;150730.38;4919788;28;20232;-56
2023/09/16 08:11:10;;;;;;;14.30;11.63;;;;;;;18.72;100.00;150750.38;4920112;28;20320;-57
2023/09/16 08:13:38;;;;;;;18.97;12.33;;;;;;;18.82;100.00;150774.19;4920696;28;20224;-56
2023/09/16 08:16:05;;;;;;;15.57;11.87;;;;;;;18.88;100.00;150789.22;4919223;28;20227;-56
2023/09/16 08:18:31;;;;;;;15.10;12.53;;;;;;;18.91;100.00;150796.72;4919149;28;20737;-56
2023/09/16 08:21:00;;;;;;;16.17;12.50;;;;;;;18.99;100.00;150816.81;4917831;28;20258;-57
2023/09/16 08:23:26;;;;;;;16.90;12.30;;;;;;;19.08;100.00;150836.84;4918449;28;20232;-57
2023/09/16 08:25:59;;;;;;;15.73;12.30;;;;;;;19.17;100.00;150859.34;4917157;28;20633;-56
2023/09/16 08:28:26;;;;;;;14.30;11.47;;;;;;;19.25;100.00;150878.16;4922240;28;20225;-57
2023/09/16 08:31:00;;;;;;;15.47;12.03;;;;;;;19.27;100.00;150883.16;4914822;28;20236;-57
2023/09/16 08:33:27;;;;;;;17.53;11.43;;;;;;;19.38;100.00;150909.44;4921875;28;20798;-57
2023/09/16 08:35:59;;;;;;;15.60;11.40;;;;;;;19.40;100.00;150915.72;4918956;28;20219;-56
2023/09/16 08:38:25;;;;;;;15.60;11.33;;;;;;;19.38;100.00;150909.44;4935903;28;20251;-56
2023/09/16 08:41:22;;;;;;;19.37;12.90;;;;;;;19.33;100.00;150899.41;4915956;28;20242;-57
2023/09/16 08:43:52;;;;;;;16.87;13.50;;;;;;;19.36;100.00;150904.41;4916943;28;20632;-56
2023/09/16 08:46:23;;;;;;;18.47;12.87;;;;;;;19.58;100.00;150958.28;4922933;28;20234;-56
2023/09/16 08:48:55;;;;;;;17.37;12.07;;;;;;;19.71;100.00;150989.59;4920030;28;20224;-56
2023/09/16 08:51:22;;;;;;;13.27;10.30;;;;;;;19.83;100.00;151019.66;4918052;28;20235;-56
2023/09/16 08:53:52;;;;;;;14.90;11.57;;;;;;;19.90;100.00;151037.22;4921514;28;20228;-57
2023/09/16 08:56:19;;;;;;;15.57;10.90;;;;;;;19.93;100.00;151043.47;4921548;28;20238;-57
2023/09/16 08:58:46;;;;;;;15.27;11.43;;;;;;;20.02;100.00;151064.78;4920003;28;20226;-56
2023/09/16 09:01:17;;;;;;;18.80;11.43;;;;;;;20.12;100.00;151089.84;4916484;28;20230;-56
2023/09/16 09:03:45;;;;;;;16.37;10.73;;;;;;;20.24;99.82;151117.38;4921166;28;20228;-57
2023/09/16 09:06:13;;;;;;;13.20;10.97;;;;;;;20.25;99.84;151121.16;4919017;28;20716;-57
2023/09/16 09:08:40;;;;;;;15.87;11.30;;;;;;;20.29;99.46;151129.88;4918607;28;20224;-57
2023/09/16 09:11:10;;;;;;;14.17;11.47;;;;;;;20.44;98.43;151167.47;4915490;28;20227;-57
2023/09/16 09:13:37;;;;;;;14.97;11.27;;;;;;;20.46;98.18;151171.25;4919497;28;20233;-57
2023/09/16 09:16:05;;;;;;;12.83;10.97;;;;;;;20.55;98.53;151193.81;4918390;28;20229;-57
2023/09/16 09:18:34;;;;;;;13.53;9.90;;;;;;;20.77;97.30;151246.41;4919424;28;20279;-57
2023/09/16 09:21:04;;;;;;;12.43;10.57;;;;;;;20.83;95.53;151260.25;4914729;28;20245;-56
2023/09/16 09:23:31;;;;;;;14.80;10.50;;;;;;;20.76;96.60;151243.91;4918435;28;20237;-57
2023/09/16 09:25:59;;;;;;;13.27;9.83;;;;;;;20.88;95.83;151272.78;4917429;28;20229;-57
2023/09/16 09:28:27;;;;;;;16.40;10.13;;;;;;;20.98;95.92;151296.59;4921868;28;20703;-57
2023/09/16 09:30:59;;;;;;;11.13;9.20;;;;;;;21.19;95.64;151348.00;4919272;28;20670;-57
2023/09/16 09:33:28;;;;;;;11.13;8.87;;;;;;;21.15;93.87;151337.97;4918784;28;20307;-57
2023/09/16 09:36:14;;;;;;;11.03;8.60;;;;;;;21.21;94.10;151352.97;4916205;28;20232;-57
2023/09/16 09:38:42;;;;;;;12.00;9.57;;;;;;;21.17;94.36;151343.00;4918159;28;20301;-58
2023/09/16 09:41:09;;;;;;;10.60;9.50;;;;;;;21.18;92.65;151345.50;4917872;28;20241;-57
2023/09/16 09:43:35;;;;;;;12.87;8.80;;;;;;;21.17;94.14;151344.22;4921708;28;20218;-57
2023/09/16 09:46:02;;;;;;;11.07;8.93;;;;;;;21.31;93.86;151376.81;4916563;28;20248;-57
2023/09/16 09:48:29;;;;;;;12.20;9.30;;;;;;;21.43;92.46;151406.91;4917033;28;20703;-57
2023/09/16 09:51:00;;;;;;;10.20;8.83;;;;;;;21.64;91.46;151458.34;4918568;28;20235;-57
2023/09/16 09:53:30;;;;;;;11.13;9.37;;;;;;;21.86;90.93;151511.00;4917747;28;20230;-57
2023/09/16 09:55:59;;;;;;;12.77;9.17;;;;;;;22.19;89.91;151591.28;4921504;28;20241;-58
2023/09/16 09:58:26;;;;;;;9.57;7.93;;;;;;;22.45;87.61;151653.97;4918448;28;20240;-57
2023/09/16 10:01:17;;;;;;;12.37;8.63;;;;;;;22.76;85.90;151729.25;4916856;28;20245;-56
2023/09/16 10:03:48;;;;;;;10.30;8.43;;;;;;;23.01;83.88;151789.47;4917271;28;20237;-57
2023/09/16 10:06:16;;;;;;;9.70;7.37;;;;;;;23.36;81.87;151873.59;4917571;28;20329;-57
2023/09/16 10:08:44;;;;;;;10.80;8.50;;;;;;;23.67;80.82;151950.13;4918316;28;20223;-57
2023/09/16 10:11:11;;;;;;;10.00;7.23;;;;;;;24.09;78.85;152050.59;4916219;28;20482;-57
2023/09/16 10:13:38;;;;;;;9.40;8.30;;;;;;;24.38;74.19;152122.16;4918164;28;20250;-57
2023/09/16 10:16:05;;;;;;;8.83;7.77;;;;;;;24.38;75.44;152122.16;4915189;28;20242;-57
2023/09/16 10:18:33;;;;;;;9.40;8.40;;;;;;;24.29;74.11;152099.53;4913838;28;20707;-57
2023/09/16 10:21:00;;;;;;;9.87;7.17;;;;;;;24.50;75.46;152151.00;4916988;28;20229;-57
2023/09/16 10:23:28;;;;;;;8.53;6.63;;;;;;;24.97;73.44;152265.31;4919282;28;20615;-57
2023/09/16 10:26:01;;;;;;;9.70;7.23;;;;;;;24.95;72.43;152260.28;4913598;28;20310;-55
2023/09/16 10:28:28;;;;;;;8.93;7.57;;;;;;;24.75;75.45;152211.34;4917658;28;20256;-57
2023/09/16 10:30:59;;;;;;;11.00;7.50;;;;;;;25.22;71.88;152324.38;4913527;28;20243;-56
2023/09/16 10:33:26;;;;;;;8.33;7.40;;;;;;;25.17;71.65;152313.03;4916597;28;20705;-57
2023/09/16 10:36:18;;;;;;;7.90;7.10;;;;;;;25.13;71.09;152303.00;4915139;28;20237;-57
2023/09/16 10:38:47;;;;;;;12.53;7.90;;;;;;;25.15;70.86;152308.03;4919250;28;20221;-57
2023/09/16 10:41:17;;;;;;;9.67;7.70;;;;;;;25.01;73.01;152274.13;4928199;28;20236;-57
2023/09/16 10:43:44;;;;;;;8.30;7.50;;;;;;;25.16;72.10;152311.81;4917686;28;20743;-57
2023/09/16 10:46:17;;;;;;;10.57;8.40;;;;;;;25.02;70.79;152277.88;4913344;28;21742;-59
2023/09/16 10:48:44;;;;;;;10.90;8.37;;;;;;;24.67;73.38;152191.19;4911331;28;20259;-57
2023/09/16 10:51:18;;;;;;;8.93;7.63;;;;;;;24.56;73.54;152166.06;4914816;28;20369;-58
2023/09/16 10:53:49;;;;;;;8.47;7.30;;;;;;;24.56;74.75;152166.06;4918111;28;20234;-58
2023/09/16 10:56:24;;;;;;;9.70;7.47;;;;;;;24.71;75.42;152201.25;4915141;28;20609;-57
2023/09/16 10:58:56;;;;;;;8.87;8.00;;;;;;;24.63;75.57;152182.41;4916693;28;20229;-57
2023/09/16 11:01:30;;;;;;;9.13;7.77;;;;;;;24.76;73.97;152215.13;4914088;28;20246;-57
2023/09/16 11:04:02;;;;;;;9.27;8.27;;;;;;;24.66;76.94;152188.69;4916297;28;20235;-57
2023/09/16 11:06:29;;;;;;;10.40;8.20;;;;;;;24.68;72.22;152193.69;4916151;28;20226;-57
2023/09/16 11:08:56;;;;;;;9.63;8.17;;;;;;;24.72;72.90;152203.75;4911826;28;20324;-57
2023/09/16 11:11:24;;;;;;;8.70;7.50;;;;;;;24.70;73.70;152198.72;4933787;28;20223;-58
2023/09/16 11:13:51;;;;;;;11.07;7.13;;;;;;;24.96;73.97;152262.81;4913596;28;20250;-56
2023/09/16 11:16:21;;;;;;;8.97;7.53;;;;;;;25.35;70.87;152357.03;4911954;28;20245;-56
2023/09/16 11:18:49;;;;;;;8.90;7.70;;;;;;;25.36;69.19;152359.56;4912308;28;20235;-56
2023/09/16 11:21:50;;;;;;;9.40;7.87;;;;;;;25.37;71.12;152360.78;4911271;28;20328;-57
2023/09/16 11:24:17;;;;;;;9.63;7.70;;;;;;;25.03;73.19;152280.38;4910587;28;20238;-57
2023/09/16 11:26:47;;;;;;;9.87;8.00;;;;;;;25.03;73.95;152279.16;4912210;28;20762;-58